Time;durP1;ratioP1;P1;durP2;ratioP2;P2;SDS_P1;SDS_P2;PMS_P1;PMS_P2;Temp;Humidity;BMP_temperature;BMP_pressure;BME280_temperature;BME280_humidity;BME280_pressure;Samples;Min_cycle;Max_cycle;Signal;HPM_P1;HPM_P2
2021/05/15 00:05:40;;;;;;;7.72;3.53;;;;;;;13.08;76.99;100357.03;4995690;28;20046;-62
2021/05/15 00:08:06;;;;;;;9.70;4.60;;;;;;;13.08;77.25;100362.56;4995822;28;20103;-63
2021/05/15 00:10:33;;;;;;;8.77;4.00;;;;;;;13.23;76.47;100359.97;4995057;28;20059;-62
2021/05/15 00:12:59;;;;;;;8.02;3.70;;;;;;;13.35;76.20;100367.53;4995482;28;20054;-61
2021/05/15 00:15:26;;;;;;;9.25;3.80;;;;;;;13.39;75.92;100363.75;4995765;28;20038;-62
2021/05/15 00:17:54;;;;;;;8.13;3.67;;;;;;;13.39;75.57;100355.44;4995559;28;20041;-60
2021/05/15 00:20:20;;;;;;;6.93;3.58;;;;;;;13.39;75.65;100343.56;4995233;28;20517;-60
2021/05/15 00:22:47;;;;;;;6.45;3.53;;;;;;;13.33;75.77;100358.75;4994286;28;20057;-61
2021/05/15 00:25:15;;;;;;;8.48;4.03;;;;;;;13.28;75.95;100351.50;4994636;28;20518;-62
2021/05/15 00:27:41;;;;;;;9.55;3.55;;;;;;;13.41;75.39;100341.25;4977292;28;20390;-60
2021/05/15 00:30:10;;;;;;;7.93;3.08;;;;;;;13.30;75.57;100346.41;4994769;28;20325;-59
2021/05/15 00:32:36;;;;;;;5.63;3.75;;;;;;;12.97;76.76;100347.53;4995360;28;20054;-63
2021/05/15 00:35:03;;;;;;;8.20;3.45;;;;;;;13.21;75.97;100333.81;4978203;28;20038;-61
2021/05/15 00:37:30;;;;;;;9.23;3.30;;;;;;;13.14;76.14;100339.91;4977734;28;20042;-62
2021/05/15 00:39:56;;;;;;;10.82;3.17;;;;;;;13.14;75.78;100339.91;4995344;28;20061;-61
2021/05/15 00:42:23;;;;;;;8.15;3.28;;;;;;;13.23;75.16;100337.84;4995285;28;20038;-61
2021/05/15 00:44:49;;;;;;;7.35;2.70;;;;;;;13.24;74.34;100333.97;4995185;28;20049;-62
2021/05/15 00:47:17;;;;;;;8.18;2.42;;;;;;;13.33;73.88;100325.56;4977946;28;20054;-62
2021/05/15 00:49:44;;;;;;;11.52;2.95;;;;;;;13.25;73.23;100332.78;4995366;28;20046;-61
2021/05/15 00:52:11;;;;;;;10.43;2.60;;;;;;;13.14;73.35;100333.56;4994321;28;20057;-62
2021/05/15 00:54:39;;;;;;;7.18;2.78;;;;;;;13.34;72.74;100325.22;4994354;28;20050;-62
2021/05/15 00:57:06;;;;;;;7.82;3.00;;;;;;;13.16;72.44;100325.75;4994028;28;20050;-60
2021/05/15 00:59:33;;;;;;;6.47;2.50;;;;;;;13.29;71.84;100313.56;4994521;28;20044;-61
2021/05/15 01:01:59;;;;;;;9.68;2.90;;;;;;;13.22;71.75;100313.31;4994905;28;20569;-62
2021/05/15 01:04:26;;;;;;;5.38;2.08;;;;;;;13.35;71.93;100307.47;4995136;28;20111;-60
2021/05/15 01:06:52;;;;;;;6.28;2.03;;;;;;;13.25;71.39;100302.38;4994159;28;20438;-60
2021/05/15 01:09:19;;;;;;;5.43;2.00;;;;;;;12.91;72.64;100304.63;4993557;28;20049;-61
2021/05/15 01:11:45;;;;;;;7.57;2.60;;;;;;;13.00;72.89;100308.94;4994901;28;20045;-59
2021/05/15 01:14:11;;;;;;;9.05;2.65;;;;;;;13.28;71.96;100303.66;4995106;28;20524;-62
2021/05/15 01:21:06;;;;;;;9.63;2.75;;;;;;;13.17;72.28;100300.50;4977295;28;20409;-61
2021/05/15 01:23:32;;;;;;;9.30;2.30;;;;;;;13.08;72.76;100299.78;4977282;28;20046;-60
2021/05/15 01:25:59;;;;;;;10.65;2.50;;;;;;;13.09;73.22;100289.53;4994100;28;20054;-60
2021/05/15 01:28:29;;;;;;;8.27;2.70;;;;;;;13.03;72.94;100293.66;4993329;28;20051;-59
2021/05/15 01:35:19;;;;;;;5.03;2.10;;;;;;;12.86;73.33;100294.59;4993720;28;20050;-59
2021/05/15 01:37:45;;;;;;;7.00;2.50;;;;;;;12.76;73.05;100294.22;4993782;28;20046;-61
2021/05/15 01:40:13;;;;;;;7.78;2.42;;;;;;;12.93;72.76;100283.81;4993982;28;20558;-60
2021/05/15 01:42:39;;;;;;;9.20;2.28;;;;;;;12.81;72.83;100280.19;4993320;28;20050;-60
2021/05/15 01:45:06;;;;;;;8.85;2.42;;;;;;;12.73;73.55;100284.63;4976093;28;20054;-63
2021/05/15 01:47:36;;;;;;;8.00;2.42;;;;;;;12.80;73.06;100281.31;4994419;28;20118;-62
2021/05/15 01:50:03;;;;;;;;;;;;;;;12.73;72.59;100281.03;4977009;28;20065;-64
2021/05/15 01:52:29;;;;;;;7.60;2.45;;;;;;;12.84;72.28;100287.78;4993954;28;20269;-62
2021/05/15 01:54:55;;;;;;;8.13;2.60;;;;;;;12.82;71.98;100290.88;4993885;28;20474;-61
2021/05/15 01:57:22;;;;;;;8.20;2.70;;;;;;;12.73;72.46;100295.69;4992879;28;20378;-60
2021/05/15 01:59:48;;;;;;;6.68;2.13;;;;;;;12.62;72.26;100288.13;4993750;28;20057;-61
2021/05/15 02:06:51;;;;;;;10.88;2.83;;;;;;;12.79;71.72;100274.19;4992489;28;20046;-61
2021/05/15 02:09:18;;;;;;;7.38;2.10;;;;;;;12.80;71.75;100276.59;4959335;28;20059;-60
2021/05/15 02:11:44;;;;;;;7.40;2.20;;;;;;;12.68;71.84;100278.50;4975647;28;20054;-62
2021/05/15 02:14:10;;;;;;;14.40;2.08;;;;;;;12.68;72.16;100275.72;4993727;28;20462;-61
2021/05/15 02:16:36;;;;;;;13.73;2.17;;;;;;;12.71;71.66;100266.78;4992926;28;20339;-63
2021/05/15 02:19:02;;;;;;;6.95;2.08;;;;;;;12.78;71.30;100267.84;4992925;28;20046;-63
2021/05/15 02:21:28;;;;;;;12.77;2.25;;;;;;;12.56;71.76;100265.44;4992241;28;20050;-65
2021/05/15 02:23:55;;;;;;;18.40;2.50;;;;;;;12.60;71.46;100271.09;4992696;28;20050;-61
2021/05/15 02:26:21;;;;;;;8.82;1.80;;;;;;;12.70;71.41;100263.19;4975375;28;20460;-61
2021/05/15 02:28:47;;;;;;;8.10;2.22;;;;;;;12.86;70.89;100250.38;4993197;28;20352;-61
2021/05/15 02:31:14;;;;;;;9.02;2.20;;;;;;;12.72;71.09;100260.91;4975294;28;20046;-61
2021/05/15 02:33:40;;;;;;;8.80;2.17;;;;;;;12.75;71.07;100242.81;4993418;28;20061;-61
2021/05/15 02:36:07;;;;;;;8.23;2.20;;;;;;;12.67;71.42;100241.78;4992425;28;20053;-66
2021/05/15 02:38:33;;;;;;;8.43;2.22;;;;;;;12.69;71.38;100231.19;4975653;28;20054;-66
2021/05/15 02:40:59;;;;;;;10.63;2.40;;;;;;;12.74;71.01;100235.69;4992141;28;20504;-68
2021/05/15 02:43:25;;;;;;;9.43;2.05;;;;;;;12.61;71.27;100220.19;4975090;28;20062;-61
2021/05/15 02:45:52;;;;;;;7.47;1.90;;;;;;;12.67;71.20;100222.44;4975194;28;20050;-63
2021/05/15 02:48:18;;;;;;;8.32;2.30;;;;;;;12.59;71.33;100217.00;4993014;28;20042;-61
2021/05/15 02:50:49;;;;;;;7.72;1.88;;;;;;;12.48;71.51;100220.16;4958992;28;20058;-61
2021/05/15 02:53:16;;;;;;;10.18;1.95;;;;;;;12.61;71.24;100209.16;4992831;28;20385;-61
2021/05/15 02:55:42;;;;;;;8.65;2.00;;;;;;;12.57;70.96;100202.72;4974587;28;20505;-61
2021/05/15 02:58:10;;;;;;;8.73;2.13;;;;;;;12.56;71.37;100196.38;4975587;28;20061;-60
2021/05/15 03:00:38;;;;;;;11.88;1.92;;;;;;;12.72;70.43;100191.00;4975684;28;20058;-61
2021/05/15 03:03:04;;;;;;;7.65;2.05;;;;;;;12.46;70.61;100185.75;4992697;28;20057;-61
2021/05/15 03:05:30;;;;;;;10.82;2.85;;;;;;;12.33;71.72;100193.16;4991981;28;20050;-63
2021/05/15 03:07:57;;;;;;;11.30;2.40;;;;;;;12.30;71.87;100187.50;4991825;28;20050;-64
2021/05/15 03:10:25;;;;;;;9.15;2.03;;;;;;;12.36;71.61;100170.38;4991846;28;20051;-63
2021/05/15 03:12:55;;;;;;;10.05;2.33;;;;;;;12.35;71.35;100177.06;4992056;28;20496;-62
2021/05/15 03:15:23;;;;;;;5.90;2.10;;;;;;;12.42;71.46;100169.03;4992581;28;20042;-63
2021/05/15 03:22:17;;;;;;;10.52;2.00;;;;;;;12.46;71.39;100166.41;4974134;28;20390;-62
2021/05/15 03:24:43;;;;;;;8.52;2.53;;;;;;;12.30;71.80;100166.22;4974190;28;20058;-63
2021/05/15 03:27:09;;;;;;;12.02;2.40;;;;;;;12.16;72.00;100167.63;4992316;28;20038;-60
2021/05/15 03:29:36;;;;;;;11.85;2.30;;;;;;;12.25;71.93;100160.91;4992481;28;20038;-62
2021/05/15 03:36:52;;;;;;;9.23;2.13;;;;;;;12.25;72.18;100152.63;4992329;28;20038;-61
2021/05/15 03:39:19;;;;;;;11.40;2.20;;;;;;;12.33;71.85;100153.66;4991631;28;20138;-63
2021/05/15 03:41:48;;;;;;;9.65;2.47;;;;;;;12.26;71.93;100145.94;4991453;28;20038;-60
2021/05/15 03:44:15;;;;;;;10.20;2.20;;;;;;;12.36;72.10;100150.25;4991799;28;20057;-63
2021/05/15 03:46:41;;;;;;;12.63;2.20;;;;;;;12.16;72.61;100140.84;4992313;28;20038;-63
2021/05/15 03:49:08;;;;;;;13.52;2.45;;;;;;;11.95;73.31;100142.78;4991411;28;20390;-62
2021/05/15 03:51:35;;;;;;;8.30;2.17;;;;;;;11.99;73.53;100138.22;4991897;28;20050;-62
2021/05/15 03:54:02;;;;;;;8.65;2.30;;;;;;;12.12;73.30;100128.84;4991281;28;20490;-63
2021/05/15 03:56:28;;;;;;;12.98;2.45;;;;;;;11.99;73.57;100120.84;4991910;28;20061;-63
2021/05/15 03:58:54;;;;;;;11.30;2.60;;;;;;;12.21;72.89;100123.25;4991863;28;20486;-59
2021/05/15 04:01:21;;;;;;;8.82;2.78;;;;;;;12.22;73.08;100122.91;4974092;28;20053;-64
2021/05/15 04:03:48;;;;;;;10.27;2.72;;;;;;;12.24;72.53;100122.56;4974650;28;20058;-62
2021/05/15 04:06:15;;;;;;;7.32;2.50;;;;;;;12.30;72.88;100119.28;4991215;28;20057;-61
2021/05/15 04:08:42;;;;;;;9.32;2.47;;;;;;;12.53;72.13;100119.69;4957858;28;20058;-61
2021/05/15 04:11:09;;;;;;;10.77;2.50;;;;;;;12.36;72.28;100112.38;4992015;28;20047;-64
2021/05/15 04:20:36;;;;;;;7.78;2.65;;;;;;;12.36;73.01;100104.09;4986315;28;20347;-62
2021/05/15 04:23:03;;;;;;;10.93;2.55;;;;;;;12.32;72.64;100100.41;4991632;28;20050;-64
2021/05/15 04:25:29;;;;;;;13.40;3.15;;;;;;;12.19;73.22;100104.25;4991877;28;20050;-63
2021/05/15 04:27:56;;;;;;;11.90;2.72;;;;;;;12.02;73.77;100093.38;4974190;28;20046;-61
2021/05/15 04:30:24;;;;;;;10.65;2.80;;;;;;;12.12;73.75;100101.25;4991994;28;20045;-64
2021/05/15 04:37:27;;;;;;;10.98;2.40;;;;;;;12.03;73.65;100088.69;4991342;28;20046;-60
2021/05/15 04:39:53;;;;;;;10.80;2.53;;;;;;;12.17;73.54;100083.66;4991775;28;20037;-62
2021/05/15 04:42:20;;;;;;;7.93;2.20;;;;;;;12.19;73.23;100082.19;4991341;28;20053;-69
2021/05/15 04:44:46;;;;;;;6.18;2.13;;;;;;;12.10;73.92;100072.38;4976007;28;20402;-62
2021/05/15 04:47:12;;;;;;;7.22;2.20;;;;;;;12.10;73.52;100059.34;4978264;28;20052;-67
2021/05/15 04:49:38;;;;;;;8.00;2.25;;;;;;;12.00;74.27;100056.22;4994724;28;20073;-68
2021/05/15 04:52:04;;;;;;;6.93;2.08;;;;;;;12.15;73.18;100050.84;4994792;28;20066;-63
2021/05/15 04:54:31;;;;;;;9.85;2.10;;;;;;;12.21;72.38;100052.28;4977365;28;20061;-66
2021/05/15 04:56:57;;;;;;;7.60;2.05;;;;;;;11.95;73.04;100054.47;4994861;28;20035;-69
2021/05/15 04:59:23;;;;;;;9.15;1.90;;;;;;;12.01;73.26;100039.31;4995503;28;20050;-63
2021/05/15 05:01:49;;;;;;;6.63;1.95;;;;;;;12.14;73.07;100029.13;4995491;28;20057;-64
2021/05/15 05:04:15;;;;;;;4.80;1.50;;;;;;;12.10;72.34;100026.22;4995640;28;20053;-65
2021/05/15 05:06:41;;;;;;;5.22;1.45;;;;;;;12.08;71.42;100030.50;4995590;28;20042;-65
2021/05/15 05:09:08;;;;;;;6.15;1.60;;;;;;;11.84;71.56;100027.63;4977354;28;20050;-65
2021/05/15 05:11:34;;;;;;;7.20;1.58;;;;;;;11.89;71.59;100019.16;4978070;28;20046;-63
2021/05/15 05:14:00;;;;;;;3.72;1.40;;;;;;;12.05;71.37;100003.53;4994656;28;20050;-63
2021/05/15 05:16:26;;;;;;;5.63;1.33;;;;;;;11.94;70.82;100008.69;4994656;28;20057;-58
2021/05/15 05:23:16;;;;;;;3.30;1.20;;;;;;;12.08;71.13;100005.66;4993881;28;20046;-61
2021/05/15 05:25:42;;;;;;;5.85;1.55;;;;;;;12.08;70.75;100019.44;4993615;28;20058;-63
2021/05/15 05:28:10;;;;;;;3.67;1.27;;;;;;;11.79;71.86;100020.38;4993878;28;20046;-64
2021/05/15 05:30:37;;;;;;;4.97;1.25;;;;;;;11.85;71.92;100020.97;4993237;28;20046;-65
2021/05/15 05:33:06;;;;;;;5.65;1.55;;;;;;;11.93;71.56;100014.56;4993988;28;20043;-64
2021/05/15 05:35:34;;;;;;;5.47;1.40;;;;;;;11.89;71.65;100010.88;4994270;28;20053;-64
2021/05/15 05:38:05;;;;;;;6.25;1.73;;;;;;;12.01;71.16;99997.91;4994142;28;20057;-64
2021/05/15 05:40:31;;;;;;;;;;;;;;;12.00;71.40;99989.97;4994504;28;20046;-62
2021/05/15 05:42:57;;;;;;;5.78;1.60;;;;;;;11.99;72.20;99988.38;4976176;28;19940;-65
2021/05/15 05:45:23;;;;;;;5.47;1.50;;;;;;;12.03;72.53;99992.06;4993988;28;20049;-61
2021/05/15 05:47:49;;;;;;;4.22;1.70;;;;;;;11.92;72.77;99980.66;4976029;28;20512;-65
2021/05/15 05:50:15;;;;;;;6.57;1.83;;;;;;;11.81;73.88;99971.16;4994076;28;20505;-64
2021/05/15 05:52:41;;;;;;;6.00;1.58;;;;;;;12.01;73.71;99969.50;4993561;28;20095;-61
2021/05/15 05:55:08;;;;;;;4.70;1.55;;;;;;;12.26;73.06;99968.41;4993290;28;20462;-62
2021/05/15 05:57:35;;;;;;;2.90;1.30;;;;;;;12.04;73.45;99952.25;4992999;28;20042;-62
2021/05/15 06:00:05;;;;;;;4.55;1.40;;;;;;;11.71;74.07;99949.53;4993476;28;20050;-64
2021/05/15 06:02:31;;;;;;;5.95;1.45;;;;;;;11.70;75.05;99947.91;4993164;28;20582;-64
2021/05/15 06:04:58;;;;;;;6.07;1.50;;;;;;;11.89;75.22;99950.16;4993653;28;20046;-65
2021/05/15 06:07:24;;;;;;;5.82;1.70;;;;;;;12.00;74.59;99945.81;4992940;28;20406;-66
2021/05/15 06:09:51;;;;;;;5.88;1.48;;;;;;;11.99;74.80;99949.72;4993012;28;20053;-65
2021/05/15 06:12:18;;;;;;;6.20;1.80;;;;;;;11.85;75.22;99941.75;4993377;28;20050;-68
2021/05/15 06:14:44;;;;;;;4.75;1.60;;;;;;;11.73;75.97;99946.44;4994161;28;20057;-66
2021/05/15 06:17:11;;;;;;;4.20;1.33;;;;;;;11.96;75.60;99942.13;4993608;28;20042;-67
2021/05/15 06:24:28;;;;;;;7.55;1.58;;;;;;;11.79;76.39;99936.78;4993780;28;20039;-65
2021/05/15 06:26:54;;;;;;;4.25;1.30;;;;;;;11.85;76.33;99925.22;4993318;28;20154;-65
2021/05/15 06:29:21;;;;;;;5.38;1.52;;;;;;;11.91;76.20;99920.25;4959284;28;20039;-68
2021/05/15 06:31:47;;;;;;;9.02;1.95;;;;;;;11.93;76.03;99920.72;4994146;28;20057;-63
2021/05/15 06:34:16;;;;;;;6.85;1.90;;;;;;;11.97;76.25;99924.41;4993220;28;20034;-66
2021/05/15 06:36:42;;;;;;;4.63;1.63;;;;;;;11.97;76.07;99919.72;4992941;28;20049;-65
2021/05/15 06:39:08;;;;;;;4.20;1.80;;;;;;;12.06;76.72;99928.72;4993226;28;20062;-66
2021/05/15 06:41:34;;;;;;;5.05;1.75;;;;;;;12.06;77.03;99922.38;4993123;28;20041;-66
2021/05/15 06:44:01;;;;;;;7.38;1.42;;;;;;;11.85;76.86;99918.88;4992291;28;20049;-68
2021/05/15 06:46:27;;;;;;;5.28;1.70;;;;;;;12.02;77.58;99924.19;4992240;28;20058;-71
2021/05/15 06:48:54;;;;;;;3.85;1.60;;;;;;;11.99;77.49;99909.13;4992571;28;20042;-69
2021/05/15 06:51:20;;;;;;;8.98;2.10;;;;;;;12.09;77.51;99918.91;4992291;28;20107;-66
2021/05/15 06:53:46;;;;;;;5.22;1.60;;;;;;;11.95;77.59;99902.69;4992678;28;20387;-63
2021/05/15 06:56:12;;;;;;;5.82;1.65;;;;;;;11.96;78.19;99904.28;4974726;28;20355;-63
2021/05/15 06:58:41;;;;;;;5.78;1.60;;;;;;;12.05;77.67;99899.47;4992155;28;20065;-68
2021/05/15 07:01:08;;;;;;;4.50;1.50;;;;;;;12.11;77.43;99900.88;4992642;28;20042;-69
2021/05/15 07:03:35;;;;;;;7.80;1.40;;;;;;;12.00;77.12;99898.88;4992250;28;20050;-68
2021/05/15 07:06:06;;;;;;;3.72;1.30;;;;;;;12.01;78.63;99892.22;4974624;28;20513;-65
2021/05/15 07:08:33;;;;;;;3.72;1.27;;;;;;;12.08;78.07;99893.25;4958316;28;20053;-66
2021/05/15 07:10:59;;;;;;;5.28;1.40;;;;;;;12.15;78.15;99887.19;4991705;28;20053;-62
2021/05/15 07:13:25;;;;;;;4.80;1.52;;;;;;;12.09;78.48;99877.50;4992129;28;20069;-62
2021/05/15 07:15:51;;;;;;;3.08;1.60;;;;;;;12.19;78.75;99882.56;4992460;28;20035;-61
2021/05/15 07:18:20;;;;;;;2.35;1.10;;;;;;;12.04;78.86;99875.78;4991102;28;20046;-62
2021/05/15 07:20:46;;;;;;;2.40;1.00;;;;;;;11.98;79.66;99874.38;4959040;28;20046;-65
2021/05/15 07:23:12;;;;;;;3.47;1.40;;;;;;;11.95;80.21;99875.09;4992030;28;20057;-68
2021/05/15 07:25:39;;;;;;;2.88;1.10;;;;;;;12.19;79.63;99877.06;4992209;28;20042;-61
2021/05/15 07:28:05;;;;;;;3.70;1.05;;;;;;;12.33;78.73;99883.03;4991991;28;20073;-64
2021/05/15 07:30:31;;;;;;;2.35;1.10;;;;;;;12.22;78.78;99887.44;4991923;28;20042;-64
2021/05/15 07:32:58;;;;;;;3.05;1.40;;;;;;;12.32;79.11;99886.97;4991594;28;20059;-62
2021/05/15 07:35:25;;;;;;;2.42;1.00;;;;;;;11.99;80.26;99884.31;4974389;28;20038;-67
2021/05/15 07:37:52;;;;;;;3.15;1.30;;;;;;;11.99;80.65;99886.25;4975537;28;20054;-67
2021/05/15 07:40:19;;;;;;;3.05;1.20;;;;;;;11.76;81.47;99888.63;4973817;28;20481;-66
2021/05/15 07:42:45;;;;;;;2.47;1.10;;;;;;;12.07;80.78;99882.56;4958622;28;20398;-65
2021/05/15 07:45:13;;;;;;;2.35;1.10;;;;;;;12.19;80.24;99864.06;4992062;28;20053;-62
2021/05/15 07:47:40;;;;;;;2.65;1.20;;;;;;;12.01;80.04;99859.13;4992036;28;20061;-63
2021/05/15 07:54:30;;;;;;;2.70;1.00;;;;;;;12.39;78.47;99865.91;4991331;28;20050;-68
2021/05/15 07:56:56;;;;;;;1.52;0.93;;;;;;;12.29;79.10;99860.84;4990477;28;20057;-67
2021/05/15 07:59:23;;;;;;;2.97;1.20;;;;;;;12.57;77.84;99847.13;4991677;28;20154;-62
2021/05/15 08:01:49;;;;;;;3.95;1.58;;;;;;;12.67;77.96;99852.19;4991232;28;20054;-64
2021/05/15 08:04:15;;;;;;;4.25;1.10;;;;;;;12.80;77.51;99839.13;4991966;28;20050;-66
2021/05/15 08:06:41;;;;;;;3.92;1.10;;;;;;;12.69;77.51;99836.06;4972727;28;20054;-64
2021/05/15 08:09:08;;;;;;;3.72;1.70;;;;;;;12.83;77.58;99828.19;4974665;28;20038;-66
2021/05/15 08:11:35;;;;;;;5.35;1.85;;;;;;;12.85;76.82;99830.63;4991748;28;20042;-67
2021/05/15 08:14:04;;;;;;;4.57;1.10;;;;;;;13.01;76.58;99835.03;4974301;28;20061;-63
2021/05/15 08:16:34;;;;;;;4.20;1.10;;;;;;;13.08;76.27;99834.47;4991101;28;20502;-68
2021/05/15 08:23:26;;;;;;;2.75;1.25;;;;;;;13.83;74.57;99821.50;4995155;28;20149;-63
2021/05/15 08:25:52;;;;;;;7.60;3.75;;;;;;;14.02;73.74;99824.34;4995621;28;20453;-66
2021/05/15 08:28:19;;;;;;;10.25;4.60;;;;;;;14.39;72.23;99828.47;4977363;28;20049;-61
2021/05/15 08:30:45;;;;;;;3.33;1.40;;;;;;;14.49;72.74;99830.69;4994359;28;20061;-62
2021/05/15 08:33:11;;;;;;;6.85;2.25;;;;;;;14.83;72.30;99820.75;4994836;28;20042;-62
2021/05/15 08:35:38;;;;;;;4.95;1.88;;;;;;;14.86;71.97;99814.47;4995330;28;20038;-61
2021/05/15 08:38:06;;;;;;;4.15;1.00;;;;;;;14.97;71.26;99799.69;4995251;28;20042;-60
2021/05/15 08:40:33;;;;;;;4.65;1.20;;;;;;;15.08;70.87;99803.47;4995646;28;20398;-62
2021/05/15 08:43:00;;;;;;;5.97;1.25;;;;;;;15.18;70.08;99811.22;4995480;28;20046;-61
2021/05/15 08:45:27;;;;;;;4.22;1.40;;;;;;;15.18;69.77;99808.44;4960827;28;20054;-64
2021/05/15 08:47:53;;;;;;;5.07;1.42;;;;;;;15.32;69.39;99805.13;4992254;28;20046;-62
2021/05/15 08:50:22;;;;;;;5.47;1.25;;;;;;;15.55;69.67;99794.91;4994618;28;20470;-64
2021/05/15 08:52:50;;;;;;;16.50;9.23;;;;;;;15.64;68.96;99803.78;4994259;28;20038;-63
2021/05/15 08:55:35;;;;;;;9.00;3.67;;;;;;;15.72;67.63;99803.56;4977799;28;20054;-61
2021/05/15 08:58:02;;;;;;;5.25;1.85;;;;;;;15.57;67.37;99793.34;4976146;28;20050;-61
2021/05/15 09:00:29;;;;;;;6.75;1.40;;;;;;;15.65;67.45;99791.53;4994152;28;20057;-61
2021/05/15 09:03:01;;;;;;;6.70;1.63;;;;;;;15.59;67.39;99791.03;4994224;28;20042;-61
2021/05/15 09:05:30;;;;;;;4.10;1.23;;;;;;;15.60;66.91;99794.59;4993827;28;20062;-60
2021/05/15 09:08:00;;;;;;;8.67;1.27;;;;;;;15.52;67.86;99796.44;4995447;28;20042;-63
2021/05/15 09:10:29;;;;;;;5.40;1.33;;;;;;;15.60;68.09;99806.50;4994526;28;20285;-62
2021/05/15 09:13:18;;;;;;;4.75;1.70;;;;;;;15.73;67.74;99793.25;4993886;28;20042;-62
2021/05/15 09:15:57;;;;;;;5.67;1.70;;;;;;;15.88;67.69;99794.31;4993515;28;20054;-61
2021/05/15 09:18:40;;;;;;;8.00;1.50;;;;;;;16.14;66.49;99789.59;4993747;28;20305;-61
2021/05/15 09:21:19;;;;;;;21.80;10.15;;;;;;;16.04;65.85;99781.88;4993967;28;20057;-62
2021/05/15 09:23:49;;;;;;;7.07;1.90;;;;;;;16.16;66.42;99776.09;4994281;28;20148;-60
2021/05/15 09:26:22;;;;;;;6.80;1.33;;;;;;;16.10;66.28;99787.91;4994608;28;20390;-60
2021/05/15 09:28:56;;;;;;;11.23;1.65;;;;;;;16.30;65.71;99793.00;4993923;28;20050;-66
2021/05/15 09:31:24;;;;;;;9.75;1.73;;;;;;;16.54;65.22;99789.03;4993699;28;20054;-62
2021/05/15 09:33:57;;;;;;;7.68;1.67;;;;;;;16.82;64.29;99786.63;4994395;28;20057;-63
2021/05/15 09:36:26;;;;;;;12.23;1.92;;;;;;;16.69;63.30;99793.59;4993218;28;20046;-64
2021/05/15 09:39:04;;;;;;;16.23;3.58;;;;;;;16.81;63.86;99782.25;4992946;28;20050;-64
2021/05/15 09:41:36;;;;;;;43.03;18.70;;;;;;;16.80;63.34;99789.00;4991802;28;20050;-61
2021/05/15 09:44:06;;;;;;;34.05;15.80;;;;;;;16.99;61.90;99779.69;4992901;28;20049;-66
2021/05/15 09:46:36;;;;;;;18.33;5.68;;;;;;;16.59;62.64;99788.69;4992761;28;20054;-63
2021/05/15 09:49:05;;;;;;;21.08;9.50;;;;;;;16.66;63.60;99784.03;4992713;28;20061;-67
2021/05/15 09:51:32;;;;;;;16.20;6.88;;;;;;;16.62;62.51;99783.19;4993482;28;20053;-62
2021/05/15 09:54:24;;;;;;;13.00;4.45;;;;;;;16.52;61.42;99791.38;4992424;28;20046;-64
2021/05/15 09:57:04;;;;;;;16.95;5.78;;;;;;;16.44;62.09;99795.22;4993098;28;20049;-66
2021/05/15 09:59:34;;;;;;;15.25;7.13;;;;;;;16.45;62.29;99789.28;4992821;28;20061;-65
2021/05/15 10:02:03;;;;;;;;;;;;;;;16.30;61.31;99783.88;4994089;28;20046;-62
2021/05/15 10:09:07;;;;;;;11.35;3.50;;;;;;;17.22;60.54;99767.25;4991946;28;20042;-60
2021/05/15 10:11:35;;;;;;;11.02;2.78;;;;;;;17.34;59.75;99772.56;4992304;28;20046;-62
2021/05/15 10:14:04;;;;;;;13.45;2.70;;;;;;;17.17;60.34;99773.16;4974416;28;20054;-62
2021/05/15 10:16:31;;;;;;;10.68;2.95;;;;;;;17.32;60.79;99772.13;4991601;28;20042;-63
2021/05/15 10:19:01;;;;;;;11.07;3.03;;;;;;;17.16;60.95;99757.63;4992554;28;20481;-63
2021/05/15 10:26:18;;;;;;;11.68;2.75;;;;;;;16.83;59.69;99760.41;4992429;28;20077;-66
2021/05/15 10:28:57;;;;;;;10.55;2.50;;;;;;;16.56;62.21;99765.22;4991985;28;20061;-66
2021/05/15 10:31:35;;;;;;;10.75;2.42;;;;;;;16.52;62.97;99763.56;4993000;28;20061;-61
2021/05/15 10:34:03;;;;;;;11.68;2.88;;;;;;;16.53;63.43;99765.97;4992925;28;20054;-65
2021/05/15 10:41:14;;;;;;;10.02;2.85;;;;;;;16.68;63.08;99780.88;4992299;28;20058;-65
2021/05/15 10:43:43;;;;;;;11.15;3.47;;;;;;;16.64;63.50;99780.03;4992290;28;20421;-61
2021/05/15 10:46:16;;;;;;;9.32;2.88;;;;;;;16.47;63.60;99786.97;4959255;28;20093;-64
2021/05/15 10:49:03;;;;;;;14.13;3.13;;;;;;;15.90;65.19;99791.97;4991258;28;20058;-61
2021/05/15 10:51:39;;;;;;;13.02;3.13;;;;;;;15.41;67.37;99794.66;4991436;28;20065;-62
2021/05/15 10:54:08;;;;;;;12.52;2.67;;;;;;;15.30;68.28;99794.41;4992285;28;20054;-61
2021/05/15 10:56:50;;;;;;;11.05;2.45;;;;;;;15.30;69.00;99801.94;4992594;28;20065;-60
2021/05/15 10:59:20;;;;;;;17.92;3.47;;;;;;;14.53;69.48;99806.63;4973941;28;20053;-61
2021/05/15 11:01:50;;;;;;;13.27;3.15;;;;;;;14.39;72.27;99803.53;4990881;28;20046;-63
2021/05/15 11:04:26;;;;;;;12.98;2.65;;;;;;;14.43;72.10;99812.75;4990979;28;20398;-63
2021/05/15 11:06:57;;;;;;;18.20;3.22;;;;;;;13.97;71.80;99819.91;4991493;28;20073;-63
2021/05/15 11:09:27;;;;;;;12.13;3.58;;;;;;;13.48;74.53;99835.22;4990952;28;20054;-62
2021/05/15 11:12:10;;;;;;;13.48;2.70;;;;;;;13.37;75.04;99834.13;4991502;28;20046;-61
2021/05/15 11:14:42;;;;;;;11.98;3.00;;;;;;;13.52;75.70;99849.94;4991260;28;20054;-62
2021/05/15 11:17:26;;;;;;;14.75;3.08;;;;;;;13.68;74.93;99848.03;4990943;28;20482;-60
2021/05/15 11:20:11;;;;;;;16.17;3.38;;;;;;;13.80;75.20;99836.06;4973700;28;20053;-60
2021/05/15 11:23:13;;;;;;;13.75;2.70;;;;;;;13.87;74.00;99847.31;4931146;29;20105;-61
2021/05/15 11:25:53;;;;;;;13.65;2.88;;;;;;;13.91;74.80;99824.13;4930667;29;20059;-63
2021/05/15 11:28:25;;;;;;;11.23;2.20;;;;;;;13.99;74.03;99825.91;4930857;29;20074;-58
2021/05/15 11:30:52;;;;;;;11.80;1.85;;;;;;;14.01;73.89;99828.31;4915296;29;20542;-60
2021/05/15 11:33:21;;;;;;;24.17;12.73;;;;;;;14.21;73.82;99822.47;4930383;28;20156;-61
2021/05/15 11:40:12;;;;;;;9.07;2.45;;;;;;;14.54;72.12;99811.00;4931364;28;20063;-64
2021/05/15 11:42:40;;;;;;;12.43;2.75;;;;;;;14.64;71.94;99799.38;4930970;29;20051;-67
2021/05/15 11:45:08;;;;;;;12.93;2.83;;;;;;;14.84;70.17;99795.44;4914886;29;20067;-64
2021/05/15 11:47:35;;;;;;;11.95;2.97;;;;;;;14.74;70.20;99792.44;4914844;29;20056;-68
2021/05/15 11:50:05;;;;;;;13.13;2.88;;;;;;;15.35;69.68;99776.66;4931235;28;20563;-68
2021/05/15 11:57:08;;;;;;;10.35;2.58;;;;;;;15.64;67.33;99756.59;4934890;28;20456;-66
2021/05/15 11:59:35;;;;;;;13.32;3.25;;;;;;;15.87;66.47;99751.84;4939461;29;20158;-64
2021/05/15 12:02:03;;;;;;;10.23;2.75;;;;;;;16.52;65.12;99761.59;4939132;29;20062;-64
2021/05/15 12:04:31;;;;;;;12.02;2.60;;;;;;;16.43;64.78;99752.69;4956289;29;20300;-66
2021/05/15 12:07:07;;;;;;;12.00;3.00;;;;;;;16.67;63.33;99749.50;4954879;28;20070;-68
2021/05/15 12:09:35;;;;;;;12.55;3.28;;;;;;;16.80;62.75;99750.88;4956048;28;20055;-62
2021/05/15 12:12:08;;;;;;;11.00;2.90;;;;;;;16.80;62.20;99753.66;4957304;28;20070;-67
2021/05/15 12:14:42;;;;;;;13.98;3.38;;;;;;;16.74;61.95;99749.56;4956478;28;20391;-71
2021/05/15 12:17:15;;;;;;;14.10;2.60;;;;;;;16.71;62.42;99755.09;4970923;28;20051;-67
2021/05/15 12:19:53;;;;;;;30.90;19.42;;;;;;;16.92;62.30;99751.78;4957448;28;20050;-66
2021/05/15 12:22:24;;;;;;;16.23;6.90;;;;;;;17.55;61.10;99761.69;4956973;28;20051;-67
2021/05/15 12:24:52;;;;;;;22.52;4.35;;;;;;;17.21;60.96;99757.28;4957053;28;20155;-71
2021/05/15 12:27:23;;;;;;;19.00;3.70;;;;;;;17.32;60.64;99744.31;4956605;28;20059;-69
2021/05/15 12:30:03;;;;;;;15.18;3.40;;;;;;;17.35;60.90;99745.50;4971478;28;20047;-69
2021/05/15 12:32:35;;;;;;;;;;;;;;;17.48;60.09;99735.75;4957486;29;20047;-66
2021/05/15 12:35:09;;;;;;;13.77;3.17;;;;;;;17.54;59.14;99740.56;4955585;29;19922;-63
2021/05/15 12:37:40;;;;;;;17.88;4.20;;;;;;;17.51;59.46;99744.13;4954756;29;20055;-62
2021/05/15 12:40:09;;;;;;;16.55;4.65;;;;;;;17.68;58.50;99734.31;4955552;28;20058;-63
2021/05/15 12:42:37;;;;;;;14.30;3.53;;;;;;;17.74;58.66;99730.81;4955364;28;20051;-66
2021/05/15 12:45:14;;;;;;;16.33;3.40;;;;;;;17.74;59.02;99735.59;4955904;28;20051;-68
2021/05/15 12:47:42;;;;;;;13.50;3.58;;;;;;;17.65;58.82;99740.66;4954071;28;20062;-62
2021/05/15 12:50:27;;;;;;;15.00;3.13;;;;;;;17.53;59.00;99729.81;4969310;28;20062;-66
2021/05/15 12:53:26;;;;;;;15.32;3.25;;;;;;;17.78;58.49;99719.72;4955180;28;20491;-67